createdAt,value
2018-10-01T00:00:41.820Z,10.31
2018-10-01T00:03:10.906Z,10.39
2018-10-01T00:05:39.938Z,10.33
2018-10-01T00:08:08.889Z,10.28
2018-10-01T00:10:37.922Z,10.24
2018-10-01T00:13:07.033Z,10.25
2018-10-01T00:15:36.101Z,10.14
2018-10-01T00:18:05.071Z,10.08
2018-10-01T00:20:39.386Z,9.95
2018-10-01T00:23:08.344Z,9.86
2018-10-01T00:25:37.293Z,9.77
2018-10-01T00:28:06.241Z,9.72
2018-10-01T00:30:35.201Z,9.63
2018-10-01T00:33:04.182Z,9.50
2018-10-01T00:35:33.157Z,9.41
2018-10-01T00:38:02.127Z,9.34
2018-10-01T00:40:31.082Z,9.29
2018-10-01T00:43:00.368Z,9.25
2018-10-01T00:45:29.356Z,9.24
2018-10-01T00:47:58.306Z,9.21
2018-10-01T00:50:27.274Z,9.14
2018-10-01T00:52:56.231Z,9.13
2018-10-01T00:55:25.294Z,9.07
2018-10-01T00:57:54.226Z,8.94
2018-10-01T01:00:23.239Z,8.83
2018-10-01T01:02:52.190Z,8.73
2018-10-01T01:05:21.157Z,8.71
2018-10-01T01:07:50.110Z,8.66
2018-10-01T01:10:19.081Z,8.65
2018-10-01T01:12:48.054Z,8.64
2018-10-01T01:15:17.022Z,8.52
2018-10-01T01:17:45.973Z,8.49
2018-10-01T01:20:14.981Z,8.53
2018-10-01T01:22:43.942Z,8.50
2018-10-01T01:25:13.139Z,8.50
2018-10-01T01:27:42.087Z,8.52
2018-10-01T01:30:11.058Z,8.49
2018-10-01T01:32:39.998Z,8.42
2018-10-01T01:35:08.977Z,8.39
2018-10-01T01:37:37.922Z,8.33
2018-10-01T01:40:06.906Z,8.28
2018-10-01T01:42:35.858Z,8.24
2018-10-01T01:45:04.905Z,8.19
2018-10-01T01:47:33.889Z,8.23
2018-10-01T01:50:02.901Z,8.35
2018-10-01T01:52:31.859Z,8.29
2018-10-01T01:55:00.814Z,8.28
2018-10-01T01:57:29.766Z,8.17
2018-10-01T01:59:58.750Z,8.07
2018-10-01T02:02:27.681Z,8.13
2018-10-01T02:04:56.669Z,8.16
2018-10-01T02:07:25.618Z,8.09
2018-10-01T02:09:54.585Z,8.01
2018-10-01T02:12:23.682Z,7.98
2018-10-01T02:14:52.777Z,7.93
2018-10-01T02:17:21.730Z,7.92
2018-10-01T02:19:50.706Z,7.99
2018-10-01T02:22:19.653Z,8.00
2018-10-01T02:24:48.621Z,8.00
2018-10-01T02:27:17.701Z,8.02
2018-10-01T02:29:46.654Z,7.98
2018-10-01T02:32:15.646Z,8.01
2018-10-01T02:34:44.599Z,8.03
2018-10-01T02:37:13.570Z,8.02
2018-10-01T02:39:42.552Z,8.06
2018-10-01T02:42:11.526Z,8.00
2018-10-01T02:44:40.476Z,7.92
2018-10-01T02:47:09.431Z,7.97
2018-10-01T02:49:38.437Z,7.97
2018-10-01T02:52:12.913Z,7.96
2018-10-01T02:54:41.906Z,7.95
2018-10-01T02:57:10.850Z,8.00
2018-10-01T02:59:39.806Z,8.09
2018-10-01T03:02:08.890Z,8.16
2018-10-01T03:04:37.825Z,8.15
2018-10-01T03:07:06.835Z,8.15
2018-10-01T03:09:35.783Z,8.17
2018-10-01T03:12:04.750Z,8.17
2018-10-01T03:14:33.697Z,8.21
2018-10-01T03:17:02.682Z,8.18
2018-10-01T03:19:31.677Z,8.15
2018-10-01T03:22:00.677Z,8.11
2018-10-01T03:24:29.615Z,8.14
2018-10-01T03:26:58.577Z,8.17
2018-10-01T03:29:27.526Z,8.12
2018-10-01T03:31:56.494Z,8.08
2018-10-01T03:34:25.438Z,8.18
2018-10-01T03:36:54.383Z,8.25
2018-10-01T03:39:23.446Z,8.23
2018-10-01T03:41:52.426Z,8.19
2018-10-01T03:44:21.376Z,8.14
2018-10-01T03:46:50.337Z,8.19
2018-10-01T03:49:19.282Z,8.15
2018-10-01T03:51:48.254Z,8.13
2018-10-01T03:54:17.317Z,8.11
2018-10-01T03:56:46.263Z,8.19
2018-10-01T03:59:15.203Z,8.17
2018-10-01T04:01:44.218Z,8.15
2018-10-01T04:04:13.157Z,8.22
2018-10-01T04:06:42.126Z,8.26
2018-10-01T04:09:11.182Z,8.28
2018-10-01T04:11:40.267Z,8.30
2018-10-01T04:14:09.391Z,8.41
2018-10-01T04:16:38.350Z,8.36
2018-10-01T04:19:07.318Z,8.32
2018-10-01T04:21:36.308Z,8.38
2018-10-01T04:24:05.259Z,8.31
2018-10-01T04:26:34.211Z,8.25
2018-10-01T04:29:03.172Z,8.34
2018-10-01T04:31:32.168Z,8.34
2018-10-01T04:34:01.117Z,8.37
2018-10-01T04:36:30.169Z,8.46
2018-10-01T04:38:59.117Z,8.43
2018-10-01T04:41:28.083Z,8.51
2018-10-01T04:43:57.037Z,8.49
2018-10-01T04:46:25.990Z,8.48
2018-10-01T04:48:54.937Z,8.54
2018-10-01T04:51:23.953Z,8.55
2018-10-01T04:53:52.928Z,8.54
2018-10-01T04:56:21.861Z,8.52
2018-10-01T04:58:50.818Z,8.53
2018-10-01T05:01:19.774Z,8.56
2018-10-01T05:03:48.790Z,8.65
2018-10-01T05:06:17.803Z,8.64
2018-10-01T05:08:46.701Z,8.59
2018-10-01T05:11:15.681Z,8.66
2018-10-01T05:13:44.638Z,8.67
2018-10-01T05:16:13.605Z,8.68
2018-10-01T05:18:42.575Z,8.69
2018-10-01T05:21:11.522Z,8.74
2018-10-01T05:23:40.511Z,8.80
2018-10-01T05:26:09.477Z,8.95
2018-10-01T05:28:38.460Z,8.95
2018-10-01T05:31:07.498Z,9.05
2018-10-01T05:33:36.457Z,9.08
2018-10-01T05:36:05.413Z,9.09
2018-10-01T05:38:34.381Z,9.07
2018-10-01T05:41:03.332Z,9.05
2018-10-01T05:43:32.322Z,9.04
2018-10-01T05:46:01.284Z,9.05
2018-10-01T05:48:30.266Z,9.05
2018-10-01T05:50:59.225Z,9.14
2018-10-01T05:53:28.350Z,9.11
2018-10-01T05:55:57.373Z,9.09
2018-10-01T05:58:26.390Z,9.14
2018-10-01T06:00:55.398Z,9.16
2018-10-01T06:03:24.363Z,9.23
2018-10-01T06:05:53.341Z,9.27
2018-10-01T06:08:22.334Z,9.31
2018-10-01T06:10:51.329Z,9.34
2018-10-01T06:13:20.373Z,9.41
2018-10-01T06:15:49.337Z,9.39
2018-10-01T06:18:18.352Z,9.43
2018-10-01T06:20:47.308Z,9.50
2018-10-01T06:23:16.282Z,9.52
2018-10-01T06:25:45.403Z,9.50
2018-10-01T06:28:14.359Z,9.55
2018-10-01T06:30:43.337Z,9.59
2018-10-01T06:33:12.378Z,9.61
2018-10-01T06:35:41.326Z,9.68
2018-10-01T06:38:10.636Z,9.82
2018-10-01T06:40:39.622Z,9.97
2018-10-01T06:43:08.599Z,10.01
2018-10-01T06:45:37.577Z,10.10
2018-10-01T06:48:06.585Z,10.11
2018-10-01T06:50:35.557Z,10.17
2018-10-01T06:53:04.538Z,10.21
2018-10-01T06:55:33.541Z,10.34
2018-10-01T06:58:02.549Z,10.45
2018-10-01T07:00:31.617Z,10.50
2018-10-01T07:03:00.595Z,10.58
2018-10-01T07:05:29.703Z,10.63
2018-10-01T07:07:58.625Z,10.70
2018-10-01T07:10:27.605Z,10.77
2018-10-01T07:12:56.592Z,10.92
2018-10-01T07:15:25.643Z,10.96
2018-10-01T07:17:54.594Z,11.04
2018-10-01T07:20:23.638Z,11.02
2018-10-01T07:22:52.717Z,11.15
2018-10-01T07:25:21.707Z,11.21
2018-10-01T07:27:50.762Z,11.23
2018-10-01T07:30:19.750Z,11.26
2018-10-01T07:32:48.731Z,11.31
2018-10-01T07:35:17.701Z,11.33
2018-10-01T07:37:46.667Z,11.43
2018-10-01T07:40:15.746Z,11.40
2018-10-01T07:42:44.726Z,11.44
2018-10-01T07:45:13.874Z,11.62
2018-10-01T07:47:42.762Z,11.56
2018-10-01T07:50:11.786Z,11.58
2018-10-01T07:52:40.814Z,11.70
2018-10-01T07:55:09.837Z,11.65
2018-10-01T07:57:38.844Z,11.66
2018-10-01T08:00:08.249Z,11.90
2018-10-01T08:02:36.986Z,11.89
2018-10-01T08:05:06.070Z,11.92
2018-10-01T08:07:35.100Z,12.11
2018-10-01T08:10:04.098Z,12.22
2018-10-01T08:12:33.198Z,12.23
2018-10-01T08:15:02.179Z,12.35
2018-10-01T08:17:31.216Z,12.58
2018-10-01T08:20:00.327Z,12.62
2018-10-01T08:22:29.248Z,12.64
2018-10-01T08:24:58.226Z,12.67
2018-10-01T08:27:27.242Z,12.76
2018-10-01T08:29:56.390Z,12.82
2018-10-01T08:32:25.278Z,13.03
2018-10-01T08:34:54.283Z,13.12
2018-10-01T08:37:23.323Z,13.25
2018-10-01T08:39:52.314Z,13.28
2018-10-01T08:42:21.317Z,13.05
2018-10-01T08:44:50.408Z,13.22
2018-10-01T08:47:19.541Z,13.40
2018-10-01T08:50:04.470Z,13.39
2018-10-01T08:52:41.853Z,13.49
2018-10-01T08:55:10.876Z,13.54
2018-10-01T08:57:39.862Z,13.61
2018-10-01T09:00:08.841Z,13.75
2018-10-01T09:02:37.942Z,13.89
2018-10-01T09:05:06.991Z,13.96
2018-10-01T09:07:36.191Z,14.09
2018-10-01T09:10:05.226Z,14.15
2018-10-01T09:12:34.251Z,14.26
2018-10-01T09:15:03.401Z,14.27
2018-10-01T09:17:32.381Z,14.06
2018-10-01T09:20:01.434Z,14.26
2018-10-01T09:22:30.422Z,14.06
2018-10-01T09:24:59.441Z,14.12
2018-10-01T09:27:28.521Z,14.06
2018-10-01T09:29:57.516Z,14.22
2018-10-01T09:32:26.559Z,14.12
2018-10-01T09:34:55.532Z,13.95
2018-10-01T09:37:24.483Z,13.87
2018-10-01T09:39:53.617Z,13.91
2018-10-01T09:42:22.672Z,13.92
2018-10-01T09:44:51.690Z,13.94
2018-10-01T09:47:20.817Z,13.98
2018-10-01T09:49:49.826Z,14.18
2018-10-01T09:52:18.837Z,14.31
2018-10-01T09:54:47.966Z,14.38
2018-10-01T09:57:17.336Z,14.69
2018-10-01T09:59:46.308Z,14.96
2018-10-01T10:02:15.338Z,15.28
2018-10-01T10:04:44.365Z,15.49
2018-10-01T10:07:13.337Z,15.28
2018-10-01T10:09:42.305Z,15.36
2018-10-01T10:12:11.281Z,15.55
2018-10-01T10:14:40.318Z,15.56
2018-10-01T10:17:09.307Z,15.56
2018-10-01T10:19:38.270Z,15.49
2018-10-01T10:22:07.290Z,15.73
2018-10-01T10:24:36.225Z,15.67
2018-10-01T10:27:05.324Z,15.83
2018-10-01T10:29:34.241Z,15.66
2018-10-01T10:32:03.257Z,15.54
2018-10-01T10:34:32.293Z,15.26
2018-10-01T10:37:01.254Z,15.09
2018-10-01T10:39:30.229Z,14.71
2018-10-01T10:41:59.257Z,14.63
2018-10-01T10:44:28.245Z,14.36
2018-10-01T10:46:57.229Z,14.23
2018-10-01T10:49:26.222Z,14.28
2018-10-01T10:51:55.261Z,14.24
2018-10-01T10:54:24.386Z,14.30
2018-10-01T10:56:53.432Z,14.37
2018-10-01T10:59:22.404Z,14.44
2018-10-01T11:01:51.395Z,14.38
2018-10-01T11:04:20.433Z,14.34
2018-10-01T11:06:49.449Z,14.31
2018-10-01T11:09:18.482Z,14.27
2018-10-01T11:11:47.474Z,14.29
2018-10-01T11:14:16.782Z,14.22
2018-10-01T11:16:45.652Z,14.23
2018-10-01T11:19:14.786Z,14.29
2018-10-01T11:21:43.841Z,14.33
2018-10-01T11:24:12.645Z,14.40
2018-10-01T11:26:41.675Z,14.45
2018-10-01T11:29:10.644Z,14.50
2018-10-01T11:31:39.668Z,14.52
2018-10-01T11:34:08.618Z,14.28
2018-10-01T11:36:37.609Z,14.22
2018-10-01T11:39:10.763Z,14.18
2018-10-01T11:41:39.669Z,14.10
2018-10-01T11:44:08.784Z,13.97
2018-10-01T11:46:37.849Z,14.07
2018-10-01T11:49:13.217Z,14.15
2018-10-01T11:51:42.324Z,14.42
2018-10-01T11:54:11.249Z,14.61
2018-10-01T11:56:40.200Z,14.73
2018-10-01T11:59:09.241Z,14.78
2018-10-01T12:01:38.234Z,14.95
2018-10-01T12:04:07.601Z,14.73
2018-10-01T12:06:36.473Z,14.66
2018-10-01T12:09:08.390Z,14.74
2018-10-01T12:11:37.315Z,14.71
2018-10-01T12:14:06.335Z,14.81
2018-10-01T12:16:35.309Z,14.90
2018-10-01T12:19:04.268Z,15.24
2018-10-01T12:21:33.273Z,15.50
2018-10-01T12:24:02.249Z,15.65
2018-10-01T12:26:31.231Z,15.76
2018-10-01T12:29:00.249Z,15.68
2018-10-01T12:31:29.258Z,15.59
2018-10-01T12:33:58.289Z,15.70
2018-10-01T12:36:27.289Z,16.00
2018-10-01T12:38:56.394Z,15.92
2018-10-01T12:41:25.365Z,16.04
2018-10-01T12:43:54.350Z,16.26
2018-10-01T12:46:23.397Z,16.55
2018-10-01T12:48:52.387Z,16.86
2018-10-01T12:51:21.457Z,17.09
2018-10-01T12:53:50.345Z,16.99
2018-10-01T12:56:19.526Z,16.46
2018-10-01T12:58:48.522Z,16.20
2018-10-01T13:01:17.520Z,16.50
2018-10-01T13:03:46.497Z,16.39
2018-10-01T13:06:15.475Z,16.64
2018-10-01T13:08:44.456Z,17.02
2018-10-01T13:11:13.617Z,17.49
2018-10-01T13:13:42.603Z,17.88
2018-10-01T13:16:11.579Z,18.22
2018-10-01T13:18:40.635Z,18.55
2018-10-01T13:21:09.541Z,18.52
2018-10-01T13:23:38.545Z,17.99
2018-10-01T13:26:07.542Z,17.12
2018-10-01T13:28:36.529Z,16.76
2018-10-01T13:31:05.546Z,16.08
2018-10-01T13:33:34.535Z,15.64
2018-10-01T13:36:03.686Z,15.61
2018-10-01T13:38:32.838Z,15.27
2018-10-01T13:41:01.875Z,15.20
2018-10-01T13:43:30.854Z,15.04
2018-10-01T13:45:59.839Z,15.02
2018-10-01T13:48:28.915Z,15.55
2018-10-01T13:51:00.866Z,16.13
2018-10-01T13:53:29.840Z,16.37
2018-10-01T13:55:58.855Z,16.17
2018-10-01T13:58:28.007Z,16.09
2018-10-01T14:00:56.983Z,16.02
2018-10-01T14:03:26.029Z,16.09
2018-10-01T14:05:54.997Z,16.01
2018-10-01T14:08:24.070Z,15.78
2018-10-01T14:10:53.042Z,15.76
2018-10-01T14:13:22.265Z,15.93
2018-10-01T14:15:51.107Z,16.04
2018-10-01T14:18:20.335Z,16.22
2018-10-01T14:20:49.337Z,16.46
2018-10-01T14:23:18.375Z,16.49
2018-10-01T14:25:47.341Z,16.34
2018-10-01T14:28:16.861Z,16.35
2018-10-01T14:30:45.923Z,16.27
2018-10-01T14:33:14.921Z,16.24
2018-10-01T14:35:43.889Z,16.26
2018-10-01T14:38:12.857Z,16.24
2018-10-01T14:40:41.866Z,16.20
2018-10-01T14:43:10.873Z,16.23
2018-10-01T14:45:39.818Z,16.33
2018-10-01T14:48:09.124Z,16.27
2018-10-01T14:50:38.093Z,16.23
2018-10-01T14:53:07.153Z,16.18
2018-10-01T14:55:36.229Z,16.19
2018-10-01T14:58:05.287Z,16.21
2018-10-01T15:00:34.341Z,16.06
2018-10-01T15:03:03.337Z,15.87
2018-10-01T15:05:32.313Z,15.79
2018-10-01T15:08:01.307Z,15.86
2018-10-01T15:10:30.286Z,15.83
2018-10-01T15:12:59.353Z,15.40
2018-10-01T15:15:28.337Z,15.20
2018-10-01T15:17:57.347Z,15.20
2018-10-01T15:20:26.293Z,15.13
2018-10-01T15:22:55.317Z,14.81
2018-10-01T15:25:24.314Z,14.44
2018-10-01T15:27:53.305Z,14.16
2018-10-01T15:30:22.632Z,13.94
2018-10-01T15:32:51.698Z,13.76
2018-10-01T15:35:20.953Z,13.46
2018-10-01T15:37:49.909Z,13.27
2018-10-01T15:40:18.989Z,13.15
2018-10-01T15:42:48.013Z,13.01
2018-10-01T15:45:17.002Z,12.84
2018-10-01T15:47:45.973Z,12.72
2018-10-01T15:50:15.058Z,12.69
2018-10-01T15:52:44.010Z,12.63
2018-10-01T15:55:13.022Z,12.66
2018-10-01T15:57:42.106Z,12.66
2018-10-01T16:00:11.094Z,12.55
2018-10-01T16:02:40.185Z,12.27
2018-10-01T16:05:09.160Z,12.06
2018-10-01T16:07:38.124Z,11.93
2018-10-01T16:10:07.108Z,11.86
2018-10-01T16:12:36.070Z,11.68
2018-10-01T16:15:05.295Z,11.70
2018-10-01T16:17:34.294Z,11.59
2018-10-01T16:20:03.280Z,11.55
2018-10-01T16:22:32.285Z,11.57
2018-10-01T16:25:01.263Z,11.54
2018-10-01T16:27:30.229Z,11.59
2018-10-01T16:29:59.282Z,11.52
2018-10-01T16:32:28.306Z,11.63
2018-10-01T16:34:57.274Z,11.61
2018-10-01T16:37:26.242Z,11.59
2018-10-01T16:39:55.302Z,11.59
2018-10-01T16:42:24.478Z,11.50
2018-10-01T16:44:53.360Z,11.45
2018-10-01T16:47:22.330Z,11.45
2018-10-01T16:49:51.309Z,11.49
2018-10-01T16:52:20.324Z,11.51
2018-10-01T16:54:49.274Z,11.57
2018-10-01T16:57:18.261Z,11.43
2018-10-01T16:59:47.274Z,11.44
2018-10-01T17:02:16.290Z,11.47
2018-10-01T17:04:45.397Z,11.38
2018-10-01T17:07:14.384Z,11.32
2018-10-01T17:09:43.362Z,11.27
2018-10-01T17:12:12.397Z,11.10
2018-10-01T17:14:41.447Z,11.02
2018-10-01T17:17:10.422Z,10.95
2018-10-01T17:19:39.539Z,10.89
2018-10-01T17:22:08.518Z,10.89
2018-10-01T17:24:37.659Z,10.92
2018-10-01T17:27:06.810Z,10.96
2018-10-01T17:29:35.886Z,10.98
2018-10-01T17:32:04.899Z,11.00
2018-10-01T17:34:33.879Z,10.94
2018-10-01T17:37:03.345Z,10.96
2018-10-01T17:39:32.312Z,10.93
2018-10-01T17:42:01.269Z,10.91
2018-10-01T17:44:30.247Z,10.85
2018-10-01T17:46:59.399Z,10.80
2018-10-01T17:49:28.380Z,10.72
2018-10-01T17:51:57.354Z,10.79
2018-10-01T17:54:26.923Z,10.84
2018-10-01T17:56:55.866Z,10.78
2018-10-01T17:59:24.829Z,10.78
2018-10-01T18:01:53.811Z,10.78
2018-10-01T18:04:23.931Z,10.76
2018-10-01T18:06:53.276Z,10.74
2018-10-01T18:09:22.241Z,10.80
2018-10-01T18:11:51.405Z,10.81
2018-10-01T18:14:20.318Z,10.75
2018-10-01T18:16:49.406Z,10.76
2018-10-01T18:19:18.614Z,10.71
2018-10-01T18:21:47.626Z,10.65
2018-10-01T18:24:16.611Z,10.57
2018-10-01T18:26:45.622Z,10.45
2018-10-01T18:29:14.581Z,10.32
2018-10-01T18:31:43.583Z,10.24
2018-10-01T18:34:12.550Z,10.24
2018-10-01T18:36:41.530Z,10.13
2018-10-01T18:39:15.516Z,10.12
2018-10-01T18:41:44.528Z,10.11
2018-10-01T18:44:13.582Z,10.04
2018-10-01T18:46:42.613Z,10.00
2018-10-01T18:49:11.641Z,9.95
2018-10-01T18:51:40.626Z,9.83
2018-10-01T18:54:09.653Z,9.69
2018-10-01T18:56:38.673Z,9.64
2018-10-01T18:59:07.613Z,9.51
2018-10-01T19:01:36.729Z,9.44
2018-10-01T19:04:05.695Z,9.36
2018-10-01T19:06:34.682Z,9.26
2018-10-01T19:09:04.306Z,9.23
2018-10-01T19:11:33.298Z,9.28
2018-10-01T19:14:02.306Z,9.21
2018-10-01T19:16:31.282Z,9.20
2018-10-01T19:19:00.286Z,9.07
2018-10-01T19:21:29.546Z,8.97
2018-10-01T19:23:58.589Z,8.91
2018-10-01T19:26:28.050Z,8.80
2018-10-01T19:28:57.279Z,8.76
2018-10-01T19:31:26.236Z,8.88
2018-10-01T19:33:55.241Z,8.77
2018-10-01T19:36:24.205Z,8.76
2018-10-01T19:38:53.358Z,8.67
2018-10-01T19:41:22.185Z,8.57
2018-10-01T19:43:51.159Z,8.54
2018-10-01T19:46:20.150Z,8.48
2018-10-01T19:48:49.145Z,8.52
2018-10-01T19:51:18.164Z,8.47
2018-10-01T19:53:47.089Z,8.51
2018-10-01T19:56:16.025Z,8.57
2018-10-01T19:58:45.035Z,8.57
2018-10-01T20:01:13.962Z,8.63
2018-10-01T20:03:42.940Z,8.63
2018-10-01T20:06:12.021Z,8.69
2018-10-01T20:08:41.045Z,8.75
2018-10-01T20:11:10.092Z,8.82
2018-10-01T20:13:39.140Z,8.85
2018-10-01T20:16:08.106Z,8.90
2018-10-01T20:18:37.093Z,8.97
2018-10-01T20:21:06.104Z,9.04
2018-10-01T20:23:35.323Z,9.12
2018-10-01T20:26:04.536Z,9.18
2018-10-01T20:28:33.770Z,9.27
2018-10-01T20:31:02.362Z,9.32
2018-10-01T20:33:31.338Z,9.26
2018-10-01T20:36:00.399Z,9.09
2018-10-01T20:38:29.525Z,8.99
2018-10-01T20:40:58.547Z,8.96
2018-10-01T20:43:27.433Z,8.83
2018-10-01T20:45:56.516Z,8.76
2018-10-01T20:48:25.452Z,8.78
2018-10-01T20:50:54.448Z,8.78
2018-10-01T20:53:23.595Z,8.69
2018-10-01T20:55:52.464Z,8.67
2018-10-01T20:58:21.417Z,8.63
2018-10-01T21:00:50.376Z,8.60
2018-10-01T21:03:19.334Z,8.57
2018-10-01T21:05:48.285Z,8.60
2018-10-01T21:08:17.356Z,8.57
2018-10-01T21:10:46.317Z,8.58
2018-10-01T21:13:15.390Z,8.62
2018-10-01T21:15:44.347Z,8.69
2018-10-01T21:18:13.320Z,8.63
2018-10-01T21:20:42.271Z,8.69
2018-10-01T21:23:11.289Z,8.64
2018-10-01T21:25:40.241Z,8.61
2018-10-01T21:28:09.210Z,8.68
2018-10-01T21:30:38.162Z,8.66
2018-10-01T21:33:07.143Z,8.69
2018-10-01T21:35:36.097Z,8.64
2018-10-01T21:38:05.058Z,8.66
2018-10-01T21:40:34.145Z,8.72
2018-10-01T21:43:03.114Z,8.65
2018-10-01T21:45:32.062Z,8.65
2018-10-01T21:48:01.062Z,8.68
2018-10-01T21:50:30.265Z,8.69
2018-10-01T21:52:59.243Z,8.72
2018-10-01T21:55:28.317Z,8.72
2018-10-01T21:57:57.297Z,8.74
2018-10-01T22:00:26.290Z,8.76
2018-10-01T22:02:55.257Z,8.71
2018-10-01T22:05:24.210Z,8.66
2018-10-01T22:07:53.181Z,8.67
2018-10-01T22:10:22.187Z,8.60
2018-10-01T22:12:51.162Z,8.61
2018-10-01T22:15:20.126Z,8.52
2018-10-01T22:17:49.090Z,8.45
2018-10-01T22:20:18.046Z,8.41
2018-10-01T22:22:47.015Z,8.37
2018-10-01T22:25:16.052Z,8.26
2018-10-01T22:27:44.974Z,8.13
2018-10-01T22:30:13.925Z,8.06
2018-10-01T22:32:42.910Z,7.98
2018-10-01T22:35:11.884Z,7.83
2018-10-01T22:37:40.858Z,7.77
2018-10-01T22:40:09.817Z,7.63
2018-10-01T22:42:38.791Z,7.60
2018-10-01T22:45:07.764Z,7.40
2018-10-01T22:47:36.721Z,7.31
2018-10-01T22:50:06.075Z,7.22
2018-10-01T22:52:35.102Z,7.04
2018-10-01T22:55:04.115Z,6.81
2018-10-01T22:57:33.102Z,6.75
2018-10-01T23:00:02.137Z,6.68
2018-10-01T23:02:31.695Z,6.56
2018-10-01T23:05:00.649Z,6.53
2018-10-01T23:07:29.593Z,6.46
2018-10-01T23:09:58.677Z,6.41
2018-10-01T23:12:27.641Z,6.35
2018-10-01T23:14:56.605Z,6.26
2018-10-01T23:17:25.641Z,6.22
2018-10-01T23:19:54.617Z,6.16
2018-10-01T23:22:23.594Z,6.08
2018-10-01T23:24:52.561Z,5.97
2018-10-01T23:27:21.518Z,5.89
2018-10-01T23:29:50.482Z,5.93
2018-10-01T23:32:19.500Z,5.86
2018-10-01T23:34:48.442Z,5.91
2018-10-01T23:37:17.418Z,5.81
2018-10-01T23:39:46.498Z,5.78
2018-10-01T23:42:15.465Z,5.69
2018-10-01T23:44:44.422Z,5.78
2018-10-01T23:47:13.377Z,5.70
2018-10-01T23:49:42.350Z,5.61
2018-10-01T23:52:11.409Z,5.53
2018-10-01T23:54:40.389Z,5.53
2018-10-01T23:57:09.426Z,5.49
2018-10-01T23:59:38.421Z,5.52
